Time;durP1;ratioP1;P1;durP2;ratioP2;P2;SDS_P1;SDS_P2;PMS_P1;PMS_P2;Temp;Humidity;BMP_temperature;BMP_pressure;BME280_temperature;BME280_humidity;BME280_pressure;Samples;Min_cycle;Max_cycle;Signal;HPM_P1;HPM_P2
2022/01/14 00:01:36;;;;;;;43.20;18.45;;;4.90;74.90;;;;;;5098291;28;20468;-84
2022/01/14 00:04:01;;;;;;;44.17;16.48;;;4.90;74.80;;;;;;5095773;28;20016;-84
2022/01/14 00:06:27;;;;;;;17.95;9.18;;;4.80;74.80;;;;;;5100939;28;20031;-85
2022/01/14 00:09:00;;;;;;;29.85;12.02;;;4.90;74.80;;;;;;5105412;28;20110;-84
2022/01/14 00:11:29;;;;;;;43.37;17.77;;;4.90;74.70;;;;;;5103328;28;20027;-84
2022/01/14 00:14:08;;;;;;;21.00;9.23;;;4.90;74.60;;;;;;5103021;28;20027;-85
2022/01/14 00:16:33;;;;;;;19.67;9.10;;;4.90;74.60;;;;;;5109364;28;20042;-84
2022/01/14 00:19:00;;;;;;;32.15;14.27;;;4.90;74.60;;;;;;5104932;28;20031;-84
2022/01/14 00:21:30;;;;;;;44.97;19.80;;;4.80;74.70;;;;;;5103958;28;20019;-84
2022/01/14 00:24:11;;;;;;;44.17;18.77;;;4.90;74.70;;;;;;5096694;28;20511;-84
2022/01/14 00:32:12;;;;;;;24.27;11.93;;;4.90;74.50;;;;;;5102063;28;20069;-85
2022/01/14 00:34:38;;;;;;;20.13;8.47;;;4.90;74.40;;;;;;5099760;28;20027;-84
2022/01/14 00:37:04;;;;;;;38.95;16.40;;;4.80;74.60;;;;;;5103311;28;20072;-84
2022/01/14 00:39:30;;;;;;;;;;;4.80;74.70;;;;;;5098199;28;20024;-85
2022/01/14 00:41:59;;;;;;;32.80;14.13;;;4.80;74.80;;;;;;5103483;28;19912;-85
2022/01/14 00:44:24;;;;;;;31.73;12.33;;;4.80;74.50;;;;;;5100662;28;20016;-85
2022/01/14 00:46:50;;;;;;;47.97;18.38;;;4.80;74.70;;;;;;5103611;28;20024;-84
2022/01/14 00:49:18;;;;;;;44.97;18.90;;;4.80;74.60;;;;;;5096423;28;20027;-85
2022/01/14 00:51:44;;;;;;;37.73;16.30;;;4.80;74.70;;;;;;5105359;28;20023;-85
2022/01/14 00:54:10;;;;;;;25.25;11.75;;;4.90;74.70;;;;;;5105826;28;20026;-81
2022/01/14 00:59:15;;;;;;;18.97;9.10;;;4.90;74.60;;;;;;5095810;28;20035;-85
2022/01/14 01:01:48;;;;;;;29.23;11.37;;;4.90;74.60;;;;;;5106410;28;20063;-84
2022/01/14 01:04:25;;;;;;;40.03;19.20;;;4.90;74.50;;;;;;5096813;28;20103;-84
2022/01/14 01:06:51;;;;;;;38.23;18.80;;;4.80;74.50;;;;;;5104010;28;20022;-84
2022/01/14 01:09:17;;;;;;;29.73;11.48;;;4.90;74.30;;;;;;5104461;28;20029;-84
2022/01/14 01:11:51;;;;;;;50.77;18.57;;;4.90;74.40;;;;;;5109477;28;20115;-84
2022/01/14 01:14:34;;;;;;;40.00;17.37;;;4.80;74.40;;;;;;5096656;28;20133;-85
2022/01/14 01:16:59;;;;;;;25.27;10.07;;;4.90;74.50;;;;;;5103719;28;20054;-85
2022/01/14 01:19:25;;;;;;;42.47;16.73;;;4.90;74.50;;;;;;5100246;28;20047;-85
2022/01/14 01:21:50;;;;;;;;;;;4.80;74.50;;;;;;5106665;28;20437;-84
2022/01/14 01:24:16;;;;;;;35.50;15.20;;;4.90;74.50;;;;;;5105071;28;19940;-86
2022/01/14 01:26:43;;;;;;;27.98;13.00;;;4.90;74.30;;;;;;5104301;28;20021;-86
2022/01/14 01:31:37;;;;;;;35.67;16.27;;;4.80;74.50;;;;;;5107939;28;20028;-86
2022/01/14 01:34:18;;;;;;;20.77;9.57;;;4.80;74.50;;;;;;5106333;28;20358;-85
2022/01/14 01:36:50;;;;;;;30.63;12.90;;;4.80;74.60;;;;;;5111401;28;20031;-85
2022/01/14 01:39:18;;;;;;;36.97;16.00;;;4.80;74.60;;;;;;5102672;28;20495;-85
2022/01/14 01:41:48;;;;;;;43.37;16.00;;;4.80;74.60;;;;;;5100081;28;20043;-86
2022/01/14 01:44:15;;;;;;;31.00;13.80;;;4.80;74.60;;;;;;5114073;28;20105;-85
2022/01/14 01:46:44;;;;;;;43.93;18.47;;;4.80;74.70;;;;;;5109960;28;20023;-85
2022/01/14 01:49:10;;;;;;;38.87;15.37;;;4.80;74.70;;;;;;5105630;28;20027;-84
2022/01/14 01:51:37;;;;;;;46.03;19.57;;;4.80;74.70;;;;;;5102869;28;20015;-84
2022/01/14 01:54:03;;;;;;;40.57;15.70;;;4.80;74.80;;;;;;5104939;28;20024;-85
2022/01/14 01:56:29;;;;;;;34.05;14.25;;;4.70;74.80;;;;;;5103653;28;20024;-84
2022/01/14 01:58:56;;;;;;;20.00;11.13;;;4.80;74.80;;;;;;5097920;28;20024;-84
2022/01/14 02:01:23;;;;;;;35.20;15.33;;;4.80;74.80;;;;;;5102239;28;20019;-84
2022/01/14 02:03:49;;;;;;;23.03;11.07;;;4.80;74.80;;;;;;5111332;28;20524;-85
2022/01/14 02:06:15;;;;;;;12.30;7.23;;;4.70;74.80;;;;;;5098393;28;20092;-84
2022/01/14 02:08:41;;;;;;;37.73;17.20;;;4.70;74.80;;;;;;5098837;28;20028;-83
2022/01/14 02:11:07;;;;;;;48.33;20.65;;;4.80;74.80;;;;;;5104936;28;20080;-85
2022/01/14 02:13:33;;;;;;;;;;;4.70;74.70;;;;;;5108505;28;20024;-86
2022/01/14 02:16:17;;;;;;;38.03;16.13;;;4.80;74.70;;;;;;5106573;28;19953;-84
2022/01/14 02:24:32;;;;;;;25.33;11.13;;;4.70;74.60;;;;;;5109007;28;20043;-85
2022/01/14 02:26:57;;;;;;;26.83;12.93;;;4.70;74.70;;;;;;5101736;28;20024;-85
2022/01/14 02:29:23;;;;;;;35.30;14.70;;;4.70;74.70;;;;;;5105209;28;20028;-84
2022/01/14 02:31:49;;;;;;;34.20;14.75;;;4.70;74.70;;;;;;5103413;28;20023;-83
2022/01/14 02:34:16;;;;;;;45.63;19.77;;;4.70;74.70;;;;;;5093551;28;20024;-84
2022/01/14 02:36:46;;;;;;;47.93;20.57;;;4.60;74.70;;;;;;5107620;28;20024;-85
2022/01/14 02:39:13;;;;;;;38.00;17.20;;;4.60;74.80;;;;;;5096851;28;20031;-84
2022/01/14 02:41:41;;;;;;;29.00;12.10;;;4.60;74.80;;;;;;5110003;28;20023;-84
2022/01/14 02:44:09;;;;;;;22.50;9.60;;;4.60;74.90;;;;;;5112707;28;20438;-85
2022/01/14 02:46:43;;;;;;;38.57;15.83;;;4.60;74.90;;;;;;5106047;28;20028;-86
2022/01/14 02:49:08;;;;;;;55.03;22.20;;;4.60;75.00;;;;;;5104988;28;20877;-84
2022/01/14 02:51:35;;;;;;;26.10;12.27;;;4.60;75.00;;;;;;5100058;28;20012;-84
2022/01/14 02:54:13;;;;;;;24.43;10.00;;;4.60;75.00;;;;;;5106720;28;20024;-85
2022/01/14 02:56:46;;;;;;;36.53;15.60;;;4.60;75.00;;;;;;5100853;28;20560;-84
2022/01/14 02:59:21;;;;;;;34.70;14.03;;;4.60;75.00;;;;;;5101094;28;20023;-84
2022/01/14 03:01:49;;;;;;;23.17;11.73;;;4.50;75.00;;;;;;5102529;28;20115;-84
2022/01/14 03:04:19;;;;;;;31.87;14.20;;;4.60;75.10;;;;;;5103451;28;20031;-84
2022/01/14 03:06:46;;;;;;;41.47;19.10;;;4.60;75.10;;;;;;5108569;28;20032;-84
2022/01/14 03:09:12;;;;;;;30.80;13.37;;;4.50;75.20;;;;;;5111362;28;20444;-84
2022/01/14 03:11:48;;;;;;;26.95;9.82;;;4.60;75.00;;;;;;5103434;28;20055;-83
2022/01/14 03:14:22;;;;;;;35.08;14.07;;;4.50;74.90;;;;;;5106590;28;20053;-84
2022/01/14 03:16:49;;;;;;;23.67;11.50;;;4.50;75.10;;;;;;5105630;28;20028;-83
2022/01/14 03:19:20;;;;;;;40.00;18.27;;;4.50;75.10;;;;;;5104407;28;20088;-85
2022/01/14 03:21:46;;;;;;;23.50;9.63;;;4.40;75.10;;;;;;5093322;28;20032;-85
2022/01/14 03:24:22;;;;;;;18.75;8.23;;;4.50;75.10;;;;;;5101466;28;20093;-85
2022/01/14 03:26:51;;;;;;;13.52;6.97;;;4.50;75.20;;;;;;5094173;28;20480;-85
2022/01/14 03:29:18;;;;;;;33.90;12.30;;;4.40;75.20;;;;;;5101910;28;20476;-84
2022/01/14 03:31:45;;;;;;;48.43;20.70;;;4.50;75.30;;;;;;5105788;28;20095;-85
2022/01/14 03:34:11;;;;;;;28.00;13.00;;;4.40;75.30;;;;;;5101475;28;20023;-84
2022/01/14 03:36:38;;;;;;;46.10;19.88;;;4.50;75.30;;;;;;5102360;28;20496;-85
2022/01/14 03:39:05;;;;;;;37.70;15.63;;;4.40;75.30;;;;;;5105811;28;20414;-86
2022/01/14 03:41:30;;;;;;;29.87;11.77;;;4.40;75.20;;;;;;5107269;28;20039;-84
2022/01/14 03:43:56;;;;;;;36.75;16.70;;;4.40;75.30;;;;;;5101768;28;20032;-84
2022/01/14 03:46:22;;;;;;;36.83;15.10;;;4.50;75.10;;;;;;5098174;28;20035;-84
2022/01/14 03:48:47;;;;;;;41.85;17.30;;;4.50;74.90;;;;;;5100588;28;20024;-84
2022/01/14 03:51:13;;;;;;;25.63;11.75;;;4.50;75.00;;;;;;5106560;28;20023;-84
2022/01/14 03:53:39;;;;;;;;;;;4.50;74.90;;;;;;5108095;28;20028;-85
2022/01/14 03:56:05;;;;;;;35.53;15.53;;;4.50;75.00;;;;;;5108171;28;19911;-84
2022/01/14 03:58:30;;;;;;;;;;;4.50;74.60;;;;;;5109640;28;20047;-84
2022/01/14 04:00:56;;;;;;;26.33;12.50;;;4.50;74.90;;;;;;5108047;28;20276;-85
2022/01/14 04:03:21;;;;;;;22.90;9.77;;;4.50;74.50;;;;;;5105911;28;20030;-84
2022/01/14 04:05:47;;;;;;;26.98;12.40;;;4.50;74.70;;;;;;5098830;28;20369;-84
2022/01/14 04:08:12;;;;;;;;;;;4.40;74.80;;;;;;5104207;28;20024;-85
2022/01/14 04:10:38;;;;;;;24.87;11.70;;;4.40;74.90;;;;;;5103508;28;19989;-84
2022/01/14 04:13:12;;;;;;;;;;;4.50;74.70;;;;;;5105493;28;20023;-84
2022/01/14 04:15:56;;;;;;;20.20;9.13;;;4.50;74.90;;;;;;5101601;28;19907;-86
2022/01/14 04:18:21;;;;;;;27.20;11.93;;;4.50;74.70;;;;;;5104673;28;20032;-84
2022/01/14 04:20:49;;;;;;;30.13;13.68;;;4.50;74.60;;;;;;5110657;28;20357;-84
2022/01/14 04:23:22;;;;;;;35.93;16.77;;;4.40;74.80;;;;;;5104478;28;20051;-86
2022/01/14 04:25:51;;;;;;;34.00;15.57;;;4.50;74.80;;;;;;5099369;28;20024;-85
2022/01/14 04:28:18;;;;;;;25.33;12.83;;;4.40;74.90;;;;;;5102852;28;20023;-85
2022/01/14 04:30:43;;;;;;;13.60;7.63;;;4.50;74.80;;;;;;5111580;28;20022;-85
2022/01/14 04:33:09;;;;;;;;;;;4.50;74.70;;;;;;5107976;28;20442;-85
2022/01/14 04:35:34;;;;;;;26.90;10.80;;;4.50;74.70;;;;;;5106436;28;20010;-84
2022/01/14 04:38:00;;;;;;;27.25;11.68;;;4.50;74.50;;;;;;5105080;28;20015;-84
2022/01/14 04:40:26;;;;;;;19.13;10.47;;;4.50;74.60;;;;;;5098570;28;20031;-84
2022/01/14 04:42:53;;;;;;;28.67;11.75;;;4.50;74.70;;;;;;5100878;28;20028;-85
2022/01/14 04:48:13;;;;;;;31.40;13.57;;;4.50;74.80;;;;;;5039408;28;20036;-85
2022/01/14 04:50:39;;;;;;;28.63;12.57;;;4.50;74.70;;;;;;5108231;28;20019;-84
2022/01/14 04:53:07;;;;;;;;;;;4.50;74.70;;;;;;5101655;28;20016;-85
2022/01/14 04:55:33;;;;;;;32.77;14.73;;;4.50;74.70;;;;;;5106619;28;20360;-84
2022/01/14 04:57:59;;;;;;;22.45;10.73;;;4.50;74.20;;;;;;5108125;28;20124;-84
2022/01/14 05:00:26;;;;;;;21.95;9.80;;;4.50;74.50;;;;;;5103637;28;20478;-85
2022/01/14 05:02:53;;;;;;;20.87;10.47;;;4.40;74.50;;;;;;5101206;28;20024;-86
2022/01/14 05:05:22;;;;;;;18.83;9.17;;;4.40;74.60;;;;;;5104636;28;20465;-85
2022/01/14 05:07:49;;;;;;;17.23;7.10;;;4.40;74.60;;;;;;5110609;28;20020;-85
2022/01/14 05:12:40;;;;;;;18.80;8.50;;;4.40;74.50;;;;;;5114204;28;20365;-85
2022/01/14 05:15:07;;;;;;;18.35;8.65;;;4.40;74.60;;;;;;5109227;28;20027;-85
2022/01/14 05:17:33;;;;;;;23.50;10.60;;;4.40;74.40;;;;;;5109478;28;20056;-84
2022/01/14 05:19:59;;;;;;;;;;;4.40;74.50;;;;;;5106295;28;20035;-85
2022/01/14 05:22:26;;;;;;;20.10;9.13;;;4.40;74.50;;;;;;5110252;28;20279;-85
2022/01/14 05:24:52;;;;;;;21.20;9.53;;;4.40;74.30;;;;;;5108428;28;20024;-85
2022/01/14 05:27:18;;;;;;;37.70;15.93;;;4.40;74.50;;;;;;5099471;28;20023;-85
2022/01/14 05:29:43;;;;;;;25.45;11.30;;;4.40;74.50;;;;;;5103688;28;20051;-85
2022/01/14 05:32:12;;;;;;;;;;;4.40;74.60;;;;;;5108243;28;20399;-85
2022/01/14 05:34:39;;;;;;;22.60;8.83;;;4.30;74.70;;;;;;5109314;28;20383;-84
2022/01/14 05:37:06;;;;;;;24.07;10.60;;;4.40;74.60;;;;;;5100816;28;20052;-85
2022/01/14 05:39:32;;;;;;;30.90;14.40;;;4.30;74.80;;;;;;5108711;28;20027;-85
2022/01/14 05:42:00;;;;;;;37.88;17.30;;;4.30;74.80;;;;;;5100782;28;20026;-85
2022/01/14 05:44:26;;;;;;;36.90;17.07;;;4.30;74.80;;;;;;5106669;28;20115;-84
2022/01/14 05:46:54;;;;;;;25.97;12.73;;;4.30;74.80;;;;;;5106714;28;20039;-84
2022/01/14 05:49:20;;;;;;;25.97;11.90;;;4.30;74.80;;;;;;5107767;28;20031;-86
2022/01/14 05:51:46;;;;;;;24.63;10.67;;;4.30;74.90;;;;;;5107587;28;20024;-86
2022/01/14 05:54:12;;;;;;;34.60;14.67;;;4.30;74.90;;;;;;5106210;28;20380;-86
2022/01/14 05:56:38;;;;;;;25.57;12.60;;;4.30;74.90;;;;;;5106746;28;20042;-83
2022/01/14 05:59:04;;;;;;;19.88;10.48;;;4.30;75.00;;;;;;5104480;28;20024;-83
2022/01/14 06:01:30;;;;;;;34.78;15.20;;;4.30;75.10;;;;;;5101745;28;20111;-83
2022/01/14 06:04:03;;;;;;;22.73;10.13;;;4.30;75.10;;;;;;5109552;28;20058;-82
2022/01/14 06:06:30;;;;;;;34.30;12.50;;;4.20;75.10;;;;;;5097780;28;20496;-83
2022/01/14 06:08:57;;;;;;;27.73;11.37;;;4.30;75.20;;;;;;5115206;28;20035;-81
2022/01/14 06:11:23;;;;;;;27.00;12.43;;;4.30;75.30;;;;;;5106911;28;20528;-81
2022/01/14 06:13:48;;;;;;;28.08;12.50;;;4.20;75.40;;;;;;5106487;28;20023;-82
2022/01/14 06:16:14;;;;;;;;;;;4.20;75.60;;;;;;5108093;28;20016;-82
2022/01/14 06:18:40;;;;;;;44.53;18.03;;;4.30;75.40;;;;;;5102558;28;19929;-83
2022/01/14 06:21:05;;;;;;;45.77;20.27;;;4.20;75.30;;;;;;5103937;28;20121;-83
2022/01/14 06:23:31;;;;;;;26.20;11.82;;;4.20;75.60;;;;;;5107775;28;20055;-81
2022/01/14 06:25:57;;;;;;;;;;;4.20;75.70;;;;;;5102738;28;20029;-82
2022/01/14 06:28:23;;;;;;;77.27;28.57;;;4.30;75.80;;;;;;5111181;28;19908;-82
2022/01/14 06:30:49;;;;;;;25.40;12.02;;;4.20;75.60;;;;;;5103825;28;20051;-83
2022/01/14 06:33:14;;;;;;;;;;;4.20;75.90;;;;;;5098431;28;20020;-83
2022/01/14 06:35:40;;;;;;;31.83;15.57;;;4.20;76.10;;;;;;5106809;28;19908;-82
2022/01/14 06:38:06;;;;;;;30.85;14.02;;;4.20;75.90;;;;;;5103768;28;20107;-82
2022/01/14 06:40:31;;;;;;;;;;;4.10;76.00;;;;;;5101789;28;20024;-82
2022/01/14 06:42:57;;;;;;;28.67;13.23;;;4.20;76.20;;;;;;5095707;28;19908;-82
2022/01/14 06:45:26;;;;;;;;;;;4.20;76.10;;;;;;5099878;28;20024;-83
2022/01/14 06:48:04;;;;;;;20.00;10.40;;;4.20;76.30;;;;;;5107014;28;19912;-83
2022/01/14 06:50:30;;;;;;;61.80;18.93;;;4.10;76.10;;;;;;5097570;28;20032;-83
2022/01/14 06:52:56;;;;;;;38.07;16.37;;;4.10;76.30;;;;;;5107132;28;20032;-82
2022/01/14 06:55:22;;;;;;;31.13;16.13;;;4.10;76.40;;;;;;5110200;28;20024;-82
2022/01/14 06:57:47;;;;;;;;;;;4.10;76.60;;;;;;5102992;28;20024;-82
2022/01/14 07:00:16;;;;;;;29.33;15.40;;;4.10;76.60;;;;;;5107402;28;19904;-83
2022/01/14 07:02:42;;;;;;;41.97;15.40;;;4.10;76.40;;;;;;5105924;28;20024;-82
2022/01/14 07:05:09;;;;;;;46.03;17.63;;;4.10;76.60;;;;;;5098578;28;20503;-88
2022/01/14 07:07:36;;;;;;;29.53;13.07;;;4.00;76.70;;;;;;5104018;28;20023;-88
2022/01/14 07:10:02;;;;;;;25.43;9.90;;;4.10;76.60;;;;;;5103459;28;20096;-88
2022/01/14 07:12:33;;;;;;;14.50;6.77;;;4.00;76.40;;;;;;5102046;28;20051;-86
2022/01/14 07:15:00;;;;;;;12.77;7.40;;;4.10;75.90;;;;;;5099127;28;20055;-87
2022/01/14 07:17:27;;;;;;;23.50;10.70;;;4.00;75.70;;;;;;5104356;28;20024;-84
2022/01/14 07:19:56;;;;;;;16.83;8.30;;;4.00;75.70;;;;;;5105877;28;20028;-91
2022/01/14 07:22:27;;;;;;;18.23;7.40;;;3.90;75.80;;;;;;5106400;28;20040;-90
2022/01/14 07:24:53;;;;;;;16.13;6.73;;;4.00;75.80;;;;;;5105978;28;20020;-91
2022/01/14 07:27:19;;;;;;;33.10;13.55;;;3.90;75.80;;;;;;5106758;28;20049;-91
2022/01/14 07:29:44;;;;;;;;;;;3.90;76.00;;;;;;5110334;27;20024;-92
2022/01/14 07:32:10;;;;;;;24.10;10.23;;;4.00;76.00;;;;;;5111875;28;19915;-92
2022/01/14 07:34:35;;;;;;;32.60;12.98;;;4.00;75.70;;;;;;5109686;28;20016;-89
2022/01/14 07:37:02;;;;;;;26.63;12.25;;;4.00;75.90;;;;;;5109096;28;20024;-92
2022/01/14 07:39:27;;;;;;;29.30;12.47;;;3.90;76.10;;;;;;5106435;28;20023;-93
2022/01/14 07:41:53;;;;;;;;;;;3.90;76.10;;;;;;5113205;28;20076;-91
2022/01/14 07:44:20;;;;;;;39.70;17.00;;;4.00;76.20;;;;;;5100245;27;19953;-92
2022/01/14 07:46:47;;;;;;;35.17;15.77;;;4.00;76.20;;;;;;5108139;28;20035;-93
2022/01/14 07:49:13;;;;;;;56.10;19.47;;;4.00;76.20;;;;;;5106992;28;20052;-93
2022/01/14 07:51:39;;;;;;;;;;;4.00;76.40;;;;;;5104733;28;20051;-93
2022/01/14 07:54:05;;;;;;;34.20;14.57;;;4.00;76.40;;;;;;5103270;28;19985;-93
2022/01/14 07:56:39;;;;;;;53.17;20.13;;;4.10;76.30;;;;;;5101019;28;20035;-93
2022/01/14 07:59:06;;;;;;;38.07;15.50;;;4.00;76.40;;;;;;5101552;28;20028;-93
2022/01/14 08:01:35;;;;;;;50.90;20.00;;;4.10;76.40;;;;;;5102584;28;20026;-93
2022/01/14 08:04:01;;;;;;;42.13;16.73;;;4.10;76.30;;;;;;5108075;28;20039;-90
2022/01/14 08:06:27;;;;;;;37.33;15.43;;;4.10;76.20;;;;;;5110324;28;20028;-89
2022/01/14 08:08:53;;;;;;;;;;;4.20;76.00;;;;;;5101520;28;20051;-86
2022/01/14 08:11:18;;;;;;;23.07;10.90;;;4.20;76.00;;;;;;5109381;28;19992;-86
2022/01/14 08:13:44;;;;;;;;;;;4.20;75.80;;;;;;5111001;28;20111;-91
2022/01/14 08:16:09;;;;;;;47.03;17.23;;;4.20;75.80;;;;;;5098972;28;20375;-93
2022/01/14 08:18:36;;;;;;;32.15;11.88;;;4.20;75.60;;;;;;5099938;28;20036;-92
2022/01/14 08:21:03;;;;;;;27.87;12.27;;;4.20;75.70;;;;;;5098836;28;20028;-94
2022/01/14 08:23:32;;;;;;;37.07;11.93;;;4.20;75.70;;;;;;5079647;28;20462;-94
2022/01/14 08:25:58;;;;;;;20.90;7.80;;;4.20;75.80;;;;;;5114129;28;20510;-91
2022/01/14 08:28:25;;;;;;;27.67;12.95;;;4.30;75.70;;;;;;5117052;27;20003;-93
2022/01/14 08:30:51;;;;;;;29.73;12.93;;;4.30;75.60;;;;;;5102141;28;20115;-92
2022/01/14 08:33:17;;;;;;;19.43;8.63;;;4.30;75.60;;;;;;5110044;27;20028;-91
2022/01/14 08:35:43;;;;;;;33.53;13.83;;;4.30;75.70;;;;;;5117602;28;20096;-92
2022/01/14 08:38:09;;;;;;;19.60;8.45;;;4.30;75.50;;;;;;5118787;28;20065;-94
2022/01/14 08:40:35;;;;;;;27.92;11.65;;;4.30;75.50;;;;;;5117495;28;20020;-94
2022/01/14 08:43:01;;;;;;;28.52;11.68;;;4.30;75.50;;;;;;5120851;28;20092;-95
2022/01/14 08:50:37;;;;;;;44.47;16.83;;;4.40;75.40;;;;;;5076394;28;20031;-96
2022/01/14 08:53:17;;;;;;;42.87;18.83;;;4.40;75.30;;;;;;5054179;28;20021;-96
2022/01/14 08:55:45;;;;;;;26.43;12.80;;;4.40;75.10;;;;;;5053659;28;20021;-96
2022/01/14 08:58:14;;;;;;;23.13;9.47;;;4.40;75.20;;;;;;5052246;28;20018;-96
2022/01/14 09:00:40;;;;;;;25.07;10.90;;;4.50;75.10;;;;;;5046838;28;20029;-95
2022/01/14 09:03:05;;;;;;;;;;;4.50;75.00;;;;;;5042771;28;20033;-95
2022/01/14 09:05:32;;;;;;;30.33;14.10;;;4.50;75.00;;;;;;5043081;28;19912;-94
2022/01/14 09:07:57;;;;;;;;;;;4.50;74.80;;;;;;5044758;28;20017;-94
2022/01/14 09:10:23;;;;;;;36.80;15.10;;;4.40;75.10;;;;;;5045372;28;19966;-94
2022/01/14 09:12:49;;;;;;;;;;;4.50;75.00;;;;;;5046074;28;20060;-92
2022/01/14 09:15:16;;;;;;;39.43;14.03;;;4.50;75.20;;;;;;5045571;28;19954;-96
2022/01/14 09:17:42;;;;;;;40.87;15.10;;;4.40;75.00;;;;;;5045768;28;20017;-94
2022/01/14 09:20:09;;;;;;;39.08;15.23;;;4.40;75.20;;;;;;5045989;28;20139;-95
2022/01/14 09:22:39;;;;;;;38.27;15.10;;;4.40;75.30;;;;;;5046437;28;20033;-94
2022/01/14 09:25:07;;;;;;;33.93;12.97;;;4.40;75.40;;;;;;5046659;28;20124;-94
2022/01/14 09:27:33;;;;;;;37.57;16.27;;;4.30;75.70;;;;;;5042168;28;20025;-92
2022/01/14 09:30:00;;;;;;;32.70;12.67;;;4.40;75.90;;;;;;5053595;28;20029;-94
2022/01/14 09:32:26;;;;;;;39.33;15.67;;;4.40;76.00;;;;;;5064281;28;20033;-94
2022/01/14 09:34:52;;;;;;;15.13;6.82;;;4.40;76.00;;;;;;5061233;28;20032;-95
2022/01/14 09:37:18;;;;;;;;;;;4.40;76.10;;;;;;5063148;28;20528;-93
2022/01/14 09:39:44;;;;;;;32.20;13.17;;;4.40;76.20;;;;;;5060749;28;19916;-94
2022/01/14 09:42:13;;;;;;;;;;;4.40;75.90;;;;;;5051276;28;20033;-93
2022/01/14 09:44:40;;;;;;;36.47;14.37;;;4.40;76.20;;;;;;5041932;28;19912;-94
2022/01/14 09:47:06;;;;;;;25.40;11.13;;;4.40;76.20;;;;;;5042485;28;20385;-93
2022/01/14 09:49:32;;;;;;;33.30;13.75;;;4.40;76.30;;;;;;5051949;28;20053;-95
2022/01/14 09:52:01;;;;;;;40.67;16.05;;;4.40;76.50;;;;;;5065713;28;20036;-94
2022/01/14 09:54:26;;;;;;;24.57;11.00;;;4.50;76.50;;;;;;5059893;28;20028;-92
2022/01/14 09:56:53;;;;;;;23.77;10.95;;;4.50;76.50;;;;;;5063402;28;20028;-94
2022/01/14 09:59:19;;;;;;;21.10;9.77;;;4.50;76.60;;;;;;5062105;28;21158;-94
2022/01/14 10:01:45;;;;;;;;;;;4.50;76.50;;;;;;5063955;28;20016;-95
2022/01/14 10:04:18;;;;;;;13.68;6.93;;;4.50;76.70;;;;;;5052791;28;19912;-93
2022/01/14 10:06:53;;;;;;;33.10;12.27;;;4.50;76.60;;;;;;5055285;28;20025;-95
2022/01/14 10:09:37;;;;;;;26.23;11.27;;;4.40;76.80;;;;;;5053505;28;20410;-93
2022/01/14 10:12:05;;;;;;;25.57;10.73;;;4.50;77.00;;;;;;5070803;28;20035;-94
2022/01/14 10:14:33;;;;;;;30.60;11.07;;;4.50;76.90;;;;;;5064613;28;20429;-90
2022/01/14 10:17:03;;;;;;;13.00;6.27;;;4.50;77.10;;;;;;5058306;28;20033;-91
2022/01/14 10:19:34;;;;;;;17.23;8.43;;;4.50;77.00;;;;;;5054913;28;20036;-89
2022/01/14 10:22:00;;;;;;;27.47;11.77;;;4.60;77.10;;;;;;5059260;28;20222;-90
2022/01/14 10:24:29;;;;;;;;;;;4.50;77.20;;;;;;5051893;28;20402;-89
2022/01/14 10:27:05;;;;;;;14.40;5.90;;;4.60;77.30;;;;;;5074619;28;19917;-91
2022/01/14 10:29:38;;;;;;;24.93;12.30;;;4.60;77.20;;;;;;5055345;28;20039;-90
2022/01/14 10:32:06;;;;;;;24.70;10.13;;;4.50;77.20;;;;;;5052822;28;20533;-90
2022/01/14 10:34:36;;;;;;;15.80;6.50;;;4.60;77.30;;;;;;5058383;28;20021;-90
2022/01/14 10:37:11;;;;;;;23.00;9.67;;;4.60;77.40;;;;;;5056141;28;20025;-90
2022/01/14 10:39:44;;;;;;;29.33;12.27;;;4.50;77.50;;;;;;5052178;28;20020;-88
2022/01/14 10:42:28;;;;;;;18.70;7.90;;;4.60;77.50;;;;;;5058888;28;20053;-91
2022/01/14 10:44:55;;;;;;;16.87;6.90;;;4.60;77.40;;;;;;5052825;28;20474;-89
2022/01/14 10:47:23;;;;;;;13.93;6.73;;;4.60;77.30;;;;;;5053953;28;20021;-91
2022/01/14 10:49:57;;;;;;;24.50;10.90;;;4.70;77.10;;;;;;5060953;28;20040;-91
2022/01/14 10:52:25;;;;;;;21.43;9.87;;;4.70;77.00;;;;;;5061428;28;20111;-90
2022/01/14 10:54:56;;;;;;;22.80;10.60;;;4.60;77.10;;;;;;5061881;28;20055;-91
2022/01/14 10:57:28;;;;;;;25.23;10.10;;;4.70;77.10;;;;;;5063468;28;20032;-91
2022/01/14 11:00:19;;;;;;;25.77;11.03;;;4.70;77.00;;;;;;5057346;28;20070;-90
2022/01/14 11:02:48;;;;;;;25.73;11.17;;;4.70;77.00;;;;;;5044479;28;20366;-89
2022/01/14 11:05:18;;;;;;;31.73;15.53;;;4.70;77.00;;;;;;5051901;28;20040;-91
2022/01/14 11:07:45;;;;;;;17.90;8.10;;;4.70;77.20;;;;;;5078909;28;20031;-90
2022/01/14 11:10:29;;;;;;;28.00;12.60;;;4.70;77.40;;;;;;5065509;28;20028;-90
2022/01/14 11:12:57;;;;;;;18.50;8.80;;;4.70;77.30;;;;;;5064138;28;20013;-90
2022/01/14 11:15:25;;;;;;;34.93;14.43;;;4.70;77.40;;;;;;5048165;28;20035;-90
2022/01/14 11:17:55;;;;;;;33.07;14.23;;;4.80;77.40;;;;;;5045284;28;20525;-90
2022/01/14 11:20:32;;;;;;;22.57;9.73;;;4.80;77.40;;;;;;5062928;28;20028;-90
2022/01/14 11:23:14;;;;;;;37.43;16.60;;;4.80;77.40;;;;;;5060449;28;20020;-91
2022/01/14 11:25:51;;;;;;;18.73;8.33;;;4.80;77.40;;;;;;5052914;28;20036;-90
2022/01/14 11:28:31;;;;;;;33.77;12.67;;;4.80;77.30;;;;;;5059404;28;20016;-90
2022/01/14 11:30:58;;;;;;;15.67;6.73;;;4.80;77.40;;;;;;5059533;28;20111;-90
2022/01/14 11:33:41;;;;;;;22.43;10.63;;;4.80;77.50;;;;;;5051175;28;20036;-90
2022/01/14 11:36:08;;;;;;;19.63;8.10;;;4.70;77.50;;;;;;5076538;28;20432;-89
2022/01/14 11:38:42;;;;;;;24.13;11.10;;;4.80;77.50;;;;;;5043200;28;20025;-90
2022/01/14 11:41:12;;;;;;;34.70;15.77;;;4.80;77.40;;;;;;5060604;28;20045;-91
2022/01/14 11:43:55;;;;;;;39.07;17.57;;;4.70;77.50;;;;;;5063023;28;20115;-91
2022/01/14 11:46:39;;;;;;;40.57;15.57;;;4.70;77.60;;;;;;5042619;28;20059;-91
2022/01/14 11:49:31;;;;;;;42.87;20.77;;;4.70;77.60;;;;;;5041802;28;20076;-90
2022/01/14 11:52:00;;;;;;;33.37;14.90;;;4.80;77.50;;;;;;5042631;28;20017;-91
2022/01/14 11:54:46;;;;;;;24.83;12.47;;;4.70;77.40;;;;;;5055232;28;20103;-91
2022/01/14 11:57:45;;;;;;;36.15;15.57;;;4.70;77.60;;;;;;5043342;28;20040;-89
2022/01/14 12:00:50;;;;;;;41.10;19.20;;;4.70;77.60;;;;;;5056826;28;20028;-90
2022/01/14 12:03:26;;;;;;;28.73;12.67;;;4.70;77.60;;;;;;5058941;28;20030;-89
2022/01/14 12:06:10;;;;;;;46.27;18.70;;;4.80;77.40;;;;;;5044731;28;20030;-96
2022/01/14 12:09:06;;;;;;;21.60;8.57;;;4.80;77.20;;;;;;5011175;28;20030;-96
2022/01/14 12:12:23;;;;;;;42.17;17.70;;;4.80;77.00;;;;;;4990379;28;20023;-94
2022/01/14 12:14:57;;;;;;;29.80;13.60;;;4.80;77.00;;;;;;4976655;28;20063;-95
2022/01/14 12:17:38;;;;;;;36.47;17.70;;;4.80;77.00;;;;;;5136590;23;20055;-96
2022/01/14 12:20:27;;;;;;;40.63;18.77;;;4.80;77.00;;;;;;5133500;28;20028;-95
2022/01/14 12:23:08;;;;;;;26.47;11.90;;;4.80;76.70;;;;;;5131600;28;20028;-94
2022/01/14 12:25:45;;;;;;;43.57;19.73;;;4.80;76.50;;;;;;5132251;28;20023;-95
2022/01/14 12:28:26;;;;;;;42.07;18.87;;;4.80;76.40;;;;;;5133432;28;20035;-95
2022/01/14 12:31:14;;;;;;;28.30;14.53;;;4.80;76.40;;;;;;5135203;28;20038;-96
2022/01/14 12:33:48;;;;;;;34.07;16.53;;;4.90;76.20;;;;;;5130166;28;20019;-95
2022/01/14 12:36:16;;;;;;;28.83;11.63;;;4.90;76.10;;;;;;5128167;28;20065;-95
2022/01/14 12:38:44;;;;;;;34.97;15.93;;;4.90;76.00;;;;;;5128329;28;20391;-95
2022/01/14 12:41:20;;;;;;;20.83;10.27;;;4.90;76.00;;;;;;5128529;28;20045;-95
2022/01/14 12:43:57;;;;;;;34.88;14.55;;;4.90;76.10;;;;;;5105018;28;20024;-94
2022/01/14 12:46:45;;;;;;;40.13;17.93;;;4.90;76.20;;;;;;5105405;28;20035;-94
2022/01/14 12:49:22;;;;;;;39.90;16.73;;;4.90;76.20;;;;;;5106855;28;20084;-95
2022/01/14 12:52:09;;;;;;;33.97;14.00;;;5.00;76.10;;;;;;5106257;28;20376;-96
2022/01/14 12:54:40;;;;;;;34.63;16.90;;;5.00;76.20;;;;;;5105756;28;20016;-95
2022/01/14 12:57:07;;;;;;;36.40;15.70;;;5.10;76.10;;;;;;5107628;28;20086;-95
2022/01/14 12:59:48;;;;;;;28.23;14.33;;;5.10;76.10;;;;;;5132089;28;20032;-95
2022/01/14 13:02:29;;;;;;;30.47;12.83;;;5.00;76.00;;;;;;5129594;28;20043;-93
2022/01/14 13:05:20;;;;;;;31.90;15.00;;;5.10;76.10;;;;;;5104884;28;20028;-95
2022/01/14 13:07:46;;;;;;;34.53;15.73;;;5.10;76.10;;;;;;5105524;28;20020;-96
2022/01/14 13:10:14;;;;;;;26.93;12.53;;;5.10;76.00;;;;;;5105063;28;20024;-95
2022/01/14 13:12:43;;;;;;;45.00;20.33;;;5.10;75.80;;;;;;5119491;28;20023;-95
2022/01/14 13:15:13;;;;;;;47.13;22.37;;;5.10;75.80;;;;;;5120228;28;20095;-95
2022/01/14 13:17:43;;;;;;;48.00;19.53;;;5.20;75.90;;;;;;5108889;28;20032;-95
2022/01/14 13:20:12;;;;;;;40.50;18.50;;;5.20;75.80;;;;;;5107727;28;20036;-94
2022/01/14 13:22:41;;;;;;;45.50;21.27;;;5.20;75.50;;;;;;5108253;28;20028;-94
2022/01/14 13:25:13;;;;;;;17.70;8.63;;;5.30;75.50;;;;;;5108443;28;20473;-94
2022/01/14 13:27:47;;;;;;;35.77;15.67;;;5.30;75.40;;;;;;5109414;28;20039;-94